createdAt,value
2019-02-02T00:00:54.705Z,51.28
2019-02-02T00:01:54.538Z,51.18
2019-02-02T00:03:47.451Z,51.09
2019-02-02T00:04:47.287Z,51.18
2019-02-02T00:06:40.173Z,51.09
2019-02-02T00:07:40.066Z,50.80
2019-02-02T00:09:32.919Z,52.03
2019-02-02T00:10:32.803Z,51.65
2019-02-02T00:12:25.699Z,51.56
2019-02-02T00:13:25.536Z,51.37
2019-02-02T00:15:18.427Z,51.09
2019-02-02T00:16:18.287Z,50.90
2019-02-02T00:18:11.211Z,50.14
2019-02-02T00:19:11.031Z,49.76
2019-02-02T00:21:03.928Z,49.38
2019-02-02T00:22:03.783Z,49.48
2019-02-02T00:23:56.674Z,48.82
2019-02-02T00:24:56.533Z,48.82
2019-02-02T00:26:49.422Z,49.01
2019-02-02T00:27:49.290Z,49.19
2019-02-02T00:29:42.686Z,48.82
2019-02-02T00:30:42.634Z,48.91
2019-02-02T00:32:35.435Z,48.82
2019-02-02T00:33:35.303Z,48.91
2019-02-02T00:35:28.340Z,49.19
2019-02-02T00:36:28.148Z,49.01
2019-02-02T00:38:21.037Z,49.10
2019-02-02T00:39:20.910Z,49.19
2019-02-02T00:41:13.788Z,49.57
2019-02-02T00:42:13.647Z,49.76
2019-02-02T00:44:06.436Z,50.23
2019-02-02T00:45:06.298Z,50.33
2019-02-02T00:46:59.286Z,50.04
2019-02-02T00:47:59.148Z,50.23
2019-02-02T00:49:52.030Z,49.66
2019-02-02T00:50:51.926Z,49.76
2019-02-02T00:52:44.772Z,49.38
2019-02-02T00:53:44.646Z,49.19
2019-02-02T00:55:37.522Z,49.01
2019-02-02T00:56:37.421Z,48.72
2019-02-02T00:58:30.291Z,48.82
2019-02-02T00:59:30.147Z,48.44
2019-02-02T01:01:23.038Z,48.82
2019-02-02T01:02:22.901Z,49.10
2019-02-02T01:04:15.786Z,48.53
2019-02-02T01:05:15.658Z,47.96
2019-02-02T01:07:08.533Z,48.44
2019-02-02T01:08:08.394Z,47.96
2019-02-02T01:10:01.274Z,47.77
2019-02-02T01:11:01.150Z,47.87
2019-02-02T01:12:54.037Z,47.87
2019-02-02T01:13:53.891Z,47.87
2019-02-02T01:15:46.789Z,48.53
2019-02-02T01:16:46.647Z,48.53
2019-02-02T01:18:39.529Z,48.63
2019-02-02T01:19:39.393Z,48.63
2019-02-02T01:21:32.284Z,49.38
2019-02-02T01:22:32.164Z,49.66
2019-02-02T01:24:25.049Z,50.52
2019-02-02T01:25:24.893Z,50.23
2019-02-02T01:27:17.803Z,50.52
2019-02-02T01:28:17.681Z,51.28
2019-02-02T01:30:10.534Z,50.80
2019-02-02T01:31:10.391Z,50.90
2019-02-02T01:33:03.279Z,51.09
2019-02-02T01:34:03.147Z,51.09
2019-02-02T01:35:56.031Z,51.09
2019-02-02T01:36:55.883Z,51.28
2019-02-02T01:38:48.781Z,51.09
2019-02-02T01:39:48.639Z,51.09
2019-02-02T01:41:41.527Z,51.18
2019-02-02T01:42:41.403Z,51.18
2019-02-02T01:44:34.271Z,51.46
2019-02-02T01:45:34.152Z,51.56
2019-02-02T01:47:27.541Z,51.93
2019-02-02T01:48:27.399Z,51.84
2019-02-02T01:50:20.293Z,52.03
2019-02-02T01:51:20.156Z,51.84
2019-02-02T01:53:13.056Z,51.84
2019-02-02T01:54:12.904Z,51.84
2019-02-02T01:56:05.784Z,51.93
2019-02-02T01:57:05.688Z,51.84
2019-02-02T01:58:58.529Z,52.12
2019-02-02T01:59:58.399Z,51.93
2019-02-02T02:01:51.299Z,51.28
2019-02-02T02:02:51.146Z,51.46
2019-02-02T02:04:44.023Z,50.80
2019-02-02T02:05:43.896Z,51.09
2019-02-02T02:07:36.776Z,50.71
2019-02-02T02:08:36.649Z,50.80
2019-02-02T02:10:30.153Z,50.33
2019-02-02T02:11:30.022Z,50.23
2019-02-02T02:13:22.916Z,50.52
2019-02-02T02:14:22.772Z,50.52
2019-02-02T02:16:15.660Z,50.71
2019-02-02T02:17:15.512Z,51.28
2019-02-02T02:19:08.404Z,50.80
2019-02-02T02:20:08.262Z,51.28
2019-02-02T02:22:01.150Z,51.28
2019-02-02T02:23:01.016Z,51.37
2019-02-02T02:24:53.892Z,51.28
2019-02-02T02:25:53.766Z,51.09
2019-02-02T02:27:46.660Z,51.84
2019-02-02T02:28:46.515Z,51.65
2019-02-02T02:30:39.394Z,51.75
2019-02-02T02:31:39.259Z,51.84
2019-02-02T02:33:32.151Z,51.75
2019-02-02T02:34:32.010Z,51.84
2019-02-02T02:36:24.903Z,51.65
2019-02-02T02:37:24.762Z,51.75
2019-02-02T02:39:19.104Z,51.56
2019-02-02T02:40:18.952Z,51.84
2019-02-02T02:42:22.985Z,50.90
2019-02-02T02:43:22.854Z,50.80
2019-02-02T02:45:16.291Z,50.61
2019-02-02T02:46:16.039Z,50.71
2019-02-02T02:48:10.337Z,50.52
2019-02-02T02:49:10.201Z,50.99
2019-02-02T02:51:03.099Z,51.09
2019-02-02T02:52:02.946Z,51.09
2019-02-02T02:53:55.844Z,51.18
2019-02-02T02:54:55.717Z,50.99
2019-02-02T02:56:48.612Z,50.80
2019-02-02T02:57:48.482Z,50.99
2019-02-02T02:59:41.361Z,50.99
2019-02-02T03:00:41.199Z,51.75
2019-02-02T03:02:34.097Z,51.65
2019-02-02T03:03:33.941Z,51.46
2019-02-02T03:05:26.821Z,51.46
2019-02-02T03:06:26.693Z,51.28
2019-02-02T03:08:19.585Z,51.09
2019-02-02T03:09:19.448Z,51.37
2019-02-02T03:11:12.325Z,52.03
2019-02-02T03:12:12.193Z,51.75
2019-02-02T03:14:05.107Z,51.84
2019-02-02T03:15:04.941Z,51.28
2019-02-02T03:16:57.847Z,51.18
2019-02-02T03:17:57.691Z,51.28
2019-02-02T03:19:50.597Z,50.80
2019-02-02T03:20:50.461Z,51.18
2019-02-02T03:22:43.321Z,51.09
2019-02-02T03:23:43.217Z,50.99
2019-02-02T03:25:36.380Z,51.18
2019-02-02T03:26:36.275Z,50.90
2019-02-02T03:28:29.130Z,51.37
2019-02-02T03:29:28.998Z,50.99
2019-02-02T03:31:21.891Z,51.75
2019-02-02T03:32:21.751Z,51.56
2019-02-02T03:34:14.622Z,51.65
2019-02-02T03:35:14.500Z,51.84
2019-02-02T03:37:07.378Z,51.09
2019-02-02T03:38:07.256Z,50.80
2019-02-02T03:40:00.136Z,50.80
2019-02-02T03:41:00.000Z,50.80
2019-02-02T03:42:52.891Z,50.99
2019-02-02T03:43:52.749Z,51.09
2019-02-02T03:45:45.626Z,51.09
2019-02-02T03:46:45.502Z,50.71
2019-02-02T03:48:38.378Z,50.42
2019-02-02T03:49:38.245Z,50.42
2019-02-02T03:51:31.151Z,50.52
2019-02-02T03:52:31.000Z,50.04
2019-02-02T03:54:23.869Z,49.85
2019-02-02T03:55:23.747Z,49.57
2019-02-02T03:57:16.672Z,49.01
2019-02-02T03:58:16.494Z,48.82
2019-02-02T04:00:09.394Z,48.72
2019-02-02T04:01:09.252Z,48.63
2019-02-02T04:03:02.145Z,48.53
2019-02-02T04:04:02.012Z,48.63
2019-02-02T04:05:54.901Z,47.87
2019-02-02T04:06:54.765Z,47.77
2019-02-02T04:08:47.629Z,47.87
2019-02-02T04:09:47.507Z,47.77
2019-02-02T04:11:43.452Z,47.77
2019-02-02T04:12:40.239Z,47.77
2019-02-02T04:14:33.239Z,47.87
2019-02-02T04:15:33.099Z,47.96
2019-02-02T04:17:25.976Z,47.96
2019-02-02T04:18:25.843Z,48.34
2019-02-02T04:20:18.951Z,48.34
2019-02-02T04:21:18.697Z,48.44
2019-02-02T04:23:11.590Z,47.87
2019-02-02T04:24:11.443Z,47.87
2019-02-02T04:26:04.339Z,47.58
2019-02-02T04:27:04.193Z,47.20
2019-02-02T04:28:57.201Z,47.39
2019-02-02T04:29:57.053Z,46.73
2019-02-02T04:31:49.945Z,46.45
2019-02-02T04:32:49.794Z,46.07
2019-02-02T04:34:42.687Z,45.79
2019-02-02T04:35:42.559Z,45.88
2019-02-02T04:37:38.144Z,45.98
2019-02-02T04:38:35.300Z,46.26
2019-02-02T04:40:28.282Z,45.41
2019-02-02T04:41:28.152Z,45.50
2019-02-02T04:43:21.042Z,44.93
2019-02-02T04:44:20.897Z,44.56
2019-02-02T04:46:13.769Z,44.56
2019-02-02T04:47:13.658Z,44.56
2019-02-02T04:49:06.528Z,44.46
2019-02-02T04:50:06.395Z,44.37
2019-02-02T04:51:59.391Z,44.27
2019-02-02T04:52:59.252Z,43.99
2019-02-02T04:54:52.120Z,43.99
2019-02-02T04:55:51.992Z,43.71
2019-02-02T04:57:44.876Z,43.80
2019-02-02T04:58:44.758Z,43.61
2019-02-02T05:00:37.640Z,43.52
2019-02-02T05:01:37.504Z,43.90
2019-02-02T05:03:30.398Z,43.80
2019-02-02T05:04:30.262Z,43.99
2019-02-02T05:06:23.143Z,43.99
2019-02-02T05:07:23.006Z,43.99
2019-02-02T05:09:15.900Z,43.90
2019-02-02T05:10:15.750Z,43.80
2019-02-02T05:12:08.662Z,44.18
2019-02-02T05:13:08.496Z,43.99
2019-02-02T05:15:01.388Z,44.65
2019-02-02T05:16:01.247Z,44.65
2019-02-02T05:17:54.744Z,44.84
2019-02-02T05:18:54.231Z,44.84
2019-02-02T05:20:47.599Z,44.93
2019-02-02T05:21:47.455Z,44.93
2019-02-02T05:23:40.381Z,44.93
2019-02-02T05:24:41.467Z,44.74
2019-02-02T05:26:33.105Z,44.74
2019-02-02T05:27:32.973Z,44.74
2019-02-02T05:29:25.877Z,44.74
2019-02-02T05:30:25.740Z,44.84
2019-02-02T05:32:18.593Z,44.65
2019-02-02T05:33:18.483Z,44.46
2019-02-02T05:35:11.353Z,44.65
2019-02-02T05:36:11.213Z,44.37
2019-02-02T05:38:04.107Z,44.46
2019-02-02T05:39:03.984Z,44.37
2019-02-02T05:40:56.831Z,44.65
2019-02-02T05:41:56.720Z,44.56
2019-02-02T05:43:49.587Z,44.65
2019-02-02T05:44:49.459Z,44.74
2019-02-02T05:46:42.349Z,44.84
2019-02-02T05:47:42.205Z,44.93
2019-02-02T05:49:35.103Z,44.74
2019-02-02T05:50:34.981Z,44.93
2019-02-02T05:52:27.867Z,44.93
2019-02-02T05:53:27.708Z,45.03
2019-02-02T05:55:20.597Z,45.03
2019-02-02T05:56:20.467Z,45.22
2019-02-02T05:58:13.337Z,45.03
2019-02-02T05:59:13.217Z,44.84
2019-02-02T06:01:06.114Z,45.31
2019-02-02T06:02:05.995Z,45.50
2019-02-02T06:03:59.352Z,45.98
2019-02-02T06:04:59.220Z,46.07
2019-02-02T06:06:52.123Z,45.41
2019-02-02T06:07:51.997Z,45.98
2019-02-02T06:09:44.853Z,46.07
2019-02-02T06:10:44.742Z,45.79
2019-02-02T06:12:37.620Z,45.79
2019-02-02T06:13:37.468Z,45.98
2019-02-02T06:15:30.344Z,46.45
2019-02-02T06:16:30.220Z,46.73
2019-02-02T06:18:23.098Z,47.20
2019-02-02T06:19:23.005Z,47.30
2019-02-02T06:21:17.396Z,47.02
2019-02-02T06:22:17.250Z,47.02
2019-02-02T06:24:10.638Z,47.20
2019-02-02T06:25:10.530Z,47.20
2019-02-02T06:27:06.568Z,47.20
2019-02-02T06:28:06.444Z,47.02
2019-02-02T06:30:04.377Z,47.58
2019-02-02T06:31:00.724Z,47.30
2019-02-02T06:32:54.170Z,47.68
2019-02-02T06:33:54.018Z,47.77
2019-02-02T06:35:46.874Z,48.25
2019-02-02T06:36:47.234Z,48.44
2019-02-02T06:38:39.621Z,48.53
2019-02-02T06:39:39.484Z,47.96
2019-02-02T06:41:32.389Z,47.68
2019-02-02T06:42:32.235Z,47.39
2019-02-02T06:44:25.127Z,47.11
2019-02-02T06:45:24.995Z,46.45
2019-02-02T06:47:17.865Z,45.88
2019-02-02T06:48:17.735Z,46.26
2019-02-02T06:50:10.625Z,45.69
2019-02-02T06:51:10.495Z,45.12
2019-02-02T06:53:03.385Z,44.93
2019-02-02T06:54:03.232Z,45.12
2019-02-02T06:55:56.127Z,44.27
2019-02-02T06:56:55.983Z,44.18
2019-02-02T06:58:48.871Z,43.80
2019-02-02T06:59:48.732Z,43.52
2019-02-02T07:01:41.725Z,43.23
2019-02-02T07:02:41.491Z,43.23
2019-02-02T07:04:34.312Z,43.42
2019-02-02T07:05:34.169Z,43.33
2019-02-02T07:07:27.513Z,43.80
2019-02-02T07:08:27.381Z,43.80
2019-02-02T07:10:20.527Z,43.90
2019-02-02T07:11:20.274Z,43.80
2019-02-02T07:13:13.055Z,44.09
2019-02-02T07:14:12.891Z,44.65
2019-02-02T07:16:05.762Z,45.12
2019-02-02T07:17:05.686Z,45.22
2019-02-02T07:18:58.537Z,46.45
2019-02-02T07:19:58.385Z,46.07
2019-02-02T07:21:51.282Z,45.98
2019-02-02T07:22:51.159Z,45.88
2019-02-02T07:24:44.013Z,46.45
2019-02-02T07:25:43.886Z,46.45
2019-02-02T07:27:36.780Z,46.64
2019-02-02T07:28:36.669Z,46.92
2019-02-02T07:30:30.041Z,47.20
2019-02-02T07:31:29.928Z,46.83
2019-02-02T07:33:22.798Z,46.64
2019-02-02T07:34:22.740Z,46.55
2019-02-02T07:36:15.617Z,46.64
2019-02-02T07:37:15.404Z,46.64
2019-02-02T07:39:08.295Z,46.92
2019-02-02T07:40:08.191Z,47.11
2019-02-02T07:42:01.573Z,47.20
2019-02-02T07:43:01.453Z,47.02
2019-02-02T07:44:54.303Z,47.11
2019-02-02T07:45:54.162Z,46.92
2019-02-02T07:47:46.936Z,46.64
2019-02-02T07:48:46.812Z,47.30
2019-02-02T07:50:39.894Z,47.49
2019-02-02T07:51:39.770Z,47.20
2019-02-02T07:53:32.539Z,47.30
2019-02-02T07:54:33.203Z,47.39
2019-02-02T07:56:25.311Z,47.39
2019-02-02T07:57:25.170Z,47.49
2019-02-02T07:59:17.945Z,47.49
2019-02-02T08:00:17.811Z,47.49
2019-02-02T08:02:10.597Z,47.30
2019-02-02T08:03:10.463Z,47.39
2019-02-02T08:05:03.245Z,47.30
2019-02-02T08:06:03.112Z,47.02
2019-02-02T08:07:55.875Z,46.55
2019-02-02T08:08:55.749Z,46.26
2019-02-02T08:10:49.069Z,45.22
2019-02-02T08:11:48.912Z,44.84
2019-02-02T08:13:41.697Z,44.27
2019-02-02T08:14:41.557Z,44.09
2019-02-02T08:16:34.395Z,44.09
2019-02-02T08:17:34.227Z,44.09
2019-02-02T08:19:27.081Z,44.27
2019-02-02T08:20:26.957Z,44.18
2019-02-02T08:22:19.732Z,43.80
2019-02-02T08:23:19.603Z,43.42
2019-02-02T08:25:12.485Z,43.61
2019-02-02T08:26:12.365Z,43.33
2019-02-02T08:28:05.328Z,43.42
2019-02-02T08:29:05.192Z,43.04
2019-02-02T08:30:59.007Z,42.38
2019-02-02T08:31:58.881Z,42.66
2019-02-02T08:33:51.662Z,42.47
2019-02-02T08:34:51.521Z,42.57
2019-02-02T08:36:44.385Z,42.38
2019-02-02T08:37:44.269Z,42.10
2019-02-02T08:39:37.063Z,42.29
2019-02-02T08:40:36.940Z,42.29
2019-02-02T08:42:29.700Z,42.29
2019-02-02T08:43:29.569Z,42.19
2019-02-02T08:45:22.351Z,42.29
2019-02-02T08:46:22.210Z,42.19
2019-02-02T08:48:14.977Z,42.38
2019-02-02T08:49:14.878Z,42.57
2019-02-02T08:51:07.649Z,42.66
2019-02-02T08:52:07.502Z,42.95
2019-02-02T08:54:03.219Z,43.14
2019-02-02T08:55:00.677Z,43.14
2019-02-02T08:56:52.984Z,42.66
2019-02-02T08:57:52.817Z,42.66
2019-02-02T08:59:45.688Z,42.66
2019-02-02T09:00:45.544Z,42.85
2019-02-02T09:02:38.344Z,42.76
2019-02-02T09:03:38.205Z,42.47
2019-02-02T09:05:30.990Z,42.57
2019-02-02T09:06:38.527Z,42.38
2019-02-02T09:08:23.724Z,42.47
2019-02-02T09:09:23.588Z,42.38
2019-02-02T09:11:16.382Z,42.29
2019-02-02T09:12:16.237Z,42.38
2019-02-02T09:14:09.122Z,42.38
2019-02-02T09:15:09.010Z,42.29
2019-02-02T09:17:02.276Z,42.29
2019-02-02T09:18:02.186Z,42.19
2019-02-02T09:19:54.928Z,41.63
2019-02-02T09:20:54.821Z,41.91
2019-02-02T09:22:47.582Z,42.00
2019-02-02T09:23:47.438Z,41.91
2019-02-02T09:25:40.228Z,41.91
2019-02-02T09:26:40.116Z,41.72
2019-02-02T09:28:32.991Z,41.53
2019-02-02T09:29:32.862Z,41.82
2019-02-02T09:31:25.612Z,41.53
2019-02-02T09:32:25.499Z,41.63
2019-02-02T09:34:18.272Z,41.83
2019-02-02T09:35:18.161Z,41.44
2019-02-02T09:37:11.019Z,42.29
2019-02-02T09:38:12.268Z,42.76
2019-02-02T09:40:03.688Z,42.95
2019-02-02T09:41:03.527Z,43.14
2019-02-02T09:42:56.430Z,42.85
2019-02-02T09:43:56.305Z,43.42
2019-02-02T09:45:49.071Z,43.42
2019-02-02T09:46:48.949Z,43.61
2019-02-02T09:48:41.903Z,43.80
2019-02-02T09:49:41.793Z,43.82
2019-02-02T09:51:34.573Z,43.90
2019-02-02T09:52:34.439Z,44.37
2019-02-02T09:54:27.819Z,44.18
2019-02-02T09:55:27.696Z,44.20
2019-02-02T09:57:20.490Z,45.12
2019-02-02T09:58:20.343Z,44.74
2019-02-02T10:00:13.118Z,44.93
2019-02-02T10:01:12.986Z,45.12
2019-02-02T10:03:05.768Z,44.93
2019-02-02T10:04:05.650Z,45.03
2019-02-02T10:05:58.936Z,45.12
2019-02-02T10:06:58.804Z,45.60
2019-02-02T10:08:51.660Z,45.41
2019-02-02T10:09:51.542Z,45.60
2019-02-02T10:11:44.328Z,45.88
2019-02-02T10:12:44.197Z,45.60
2019-02-02T10:14:36.986Z,45.41
2019-02-02T10:15:36.844Z,45.41
2019-02-02T10:17:29.846Z,45.41
2019-02-02T10:18:29.594Z,45.03
2019-02-02T10:20:22.564Z,45.03
2019-02-02T10:21:22.433Z,45.03
2019-02-02T10:23:15.213Z,44.93
2019-02-02T10:24:15.100Z,44.93
2019-02-02T10:26:07.872Z,44.56
2019-02-02T10:27:07.738Z,44.27
2019-02-02T10:29:00.500Z,43.99
2019-02-02T10:30:00.404Z,44.09
2019-02-02T10:31:53.172Z,44.09
2019-02-02T10:32:53.039Z,44.27
2019-02-02T10:34:45.801Z,44.46
2019-02-02T10:35:45.674Z,43.71
2019-02-02T10:37:38.454Z,43.71
2019-02-02T10:38:38.317Z,43.71
2019-02-02T10:40:31.674Z,43.33
2019-02-02T10:41:31.645Z,43.33
2019-02-02T10:43:24.280Z,43.07
2019-02-02T10:44:24.130Z,43.23
2019-02-02T10:46:16.933Z,43.61
2019-02-02T10:47:16.774Z,43.61
2019-02-02T10:49:09.559Z,43.80
2019-02-02T10:50:09.429Z,43.71
2019-02-02T10:52:02.313Z,43.71
2019-02-02T10:53:02.171Z,43.33
2019-02-02T10:54:55.115Z,43.33
2019-02-02T10:55:54.915Z,43.33
2019-02-02T10:57:47.706Z,43.04
2019-02-02T10:58:47.591Z,42.85
2019-02-02T11:00:40.460Z,42.95
2019-02-02T11:01:50.447Z,42.76
2019-02-02T11:03:33.219Z,42.85
2019-02-02T11:04:33.113Z,42.66
2019-02-02T11:06:26.052Z,42.95
2019-02-02T11:07:25.833Z,42.85
2019-02-02T11:09:18.680Z,42.85
2019-02-02T11:10:18.881Z,42.57
2019-02-02T11:12:11.348Z,42.57
2019-02-02T11:13:11.246Z,43.14
2019-02-02T11:15:04.017Z,43.04
2019-02-02T11:16:03.877Z,42.66
2019-02-02T11:17:56.787Z,42.76
2019-02-02T11:18:56.603Z,42.85
2019-02-02T11:20:49.550Z,42.85
2019-02-02T11:21:49.443Z,42.85
2019-02-02T11:23:42.146Z,42.19
2019-02-02T11:24:42.014Z,42.19
2019-02-02T11:26:35.549Z,42.29
2019-02-02T11:27:35.333Z,42.47
2019-02-02T11:29:28.526Z,42.57
2019-02-02T11:30:28.039Z,42.95
2019-02-02T11:32:21.008Z,42.85
2019-02-02T11:33:20.890Z,42.76
2019-02-02T11:35:13.659Z,42.85
2019-02-02T11:36:13.509Z,43.04
2019-02-02T11:38:06.730Z,42.76
2019-02-02T11:39:06.482Z,42.95
2019-02-02T11:40:59.370Z,42.85
2019-02-02T11:41:59.227Z,42.85
2019-02-02T11:43:52.116Z,43.04
2019-02-02T11:44:51.976Z,42.85
2019-02-02T11:46:44.904Z,42.66
2019-02-02T11:47:44.720Z,43.14
2019-02-02T11:49:37.609Z,43.04
2019-02-02T11:50:37.482Z,43.14
2019-02-02T11:52:30.834Z,43.04
2019-02-02T11:53:30.270Z,43.04
2019-02-02T11:55:23.116Z,43.04
2019-02-02T11:56:22.968Z,43.04
2019-02-02T11:58:15.862Z,43.14
2019-02-02T11:59:15.719Z,43.14
2019-02-02T12:01:08.596Z,43.04
2019-02-02T12:02:14.635Z,43.33
2019-02-02T12:04:02.219Z,43.42
2019-02-02T12:05:01.211Z,43.42
2019-02-02T12:06:54.097Z,43.52
2019-02-02T12:07:53.977Z,43.23
2019-02-02T12:09:46.904Z,43.42
2019-02-02T12:10:46.721Z,43.99
2019-02-02T12:12:42.124Z,43.71
2019-02-02T12:13:39.481Z,43.71
2019-02-02T12:15:32.355Z,44.37
2019-02-02T12:16:32.231Z,43.99
2019-02-02T12:18:25.127Z,44.37
2019-02-02T12:19:25.069Z,44.46
2019-02-02T12:21:17.940Z,44.86
2019-02-02T12:22:17.713Z,45.50
2019-02-02T12:24:14.382Z,45.72
2019-02-02T12:25:10.460Z,45.79
2019-02-02T12:27:03.449Z,46.26
2019-02-02T12:28:03.211Z,45.98
2019-02-02T12:29:57.993Z,46.75
2019-02-02T12:30:55.957Z,46.66
2019-02-02T12:32:48.870Z,47.04
2019-02-02T12:33:48.727Z,47.61
2019-02-02T12:35:41.584Z,48.08
2019-02-02T12:36:41.464Z,48.46
2019-02-02T12:38:34.749Z,48.55
2019-02-02T12:39:34.618Z,48.55
2019-02-02T12:41:27.489Z,49.50
2019-02-02T12:42:27.376Z,49.79
2019-02-02T12:44:20.255Z,50.07
2019-02-02T12:45:20.127Z,50.35
2019-02-02T12:47:13.001Z,50.16
2019-02-02T12:48:12.900Z,50.16
2019-02-02T12:50:05.758Z,49.98
2019-02-02T12:51:05.613Z,50.73
2019-02-02T12:52:58.508Z,51.68
2019-02-02T12:53:58.372Z,52.44
2019-02-02T12:55:51.269Z,52.44
2019-02-02T12:56:51.232Z,53.38
2019-02-02T12:58:44.006Z,53.47
2019-02-02T12:59:43.872Z,54.04
2019-02-02T13:01:36.775Z,54.04
2019-02-02T13:02:38.080Z,53.95
2019-02-02T13:04:29.534Z,54.33
2019-02-02T13:05:29.356Z,54.52
2019-02-02T13:07:22.249Z,54.61
2019-02-02T13:08:22.134Z,54.80
2019-02-02T13:10:14.990Z,55.27
2019-02-02T13:11:14.894Z,54.90
2019-02-02T13:13:07.784Z,55.37
2019-02-02T13:14:07.622Z,55.75
2019-02-02T13:16:00.498Z,56.32
2019-02-02T13:17:00.371Z,56.70
2019-02-02T13:18:53.282Z,56.41
2019-02-02T13:19:53.109Z,56.51
2019-02-02T13:21:46.002Z,56.79
2019-02-02T13:22:45.881Z,56.88
2019-02-02T13:24:38.744Z,56.98
2019-02-02T13:25:38.688Z,56.98
2019-02-02T13:27:31.511Z,57.54
2019-02-02T13:28:31.364Z,57.64
2019-02-02T13:30:24.259Z,57.26
2019-02-02T13:31:24.108Z,57.54
2019-02-02T13:33:16.982Z,57.54
2019-02-02T13:34:16.866Z,57.17
2019-02-02T13:36:09.740Z,57.07
2019-02-02T13:37:09.607Z,57.07
2019-02-02T13:39:02.504Z,57.54
2019-02-02T13:40:03.736Z,57.35
2019-02-02T13:41:55.265Z,56.98
2019-02-02T13:42:55.113Z,57.17
2019-02-02T13:44:47.987Z,56.70
2019-02-02T13:45:47.860Z,56.88
2019-02-02T13:47:40.840Z,56.98
2019-02-02T13:48:40.799Z,56.60
2019-02-02T13:50:33.592Z,56.03
2019-02-02T13:51:33.461Z,56.13
2019-02-02T13:53:26.351Z,55.46
2019-02-02T13:54:26.279Z,55.37
2019-02-02T13:56:19.089Z,54.99
2019-02-02T13:57:18.963Z,54.99
2019-02-02T13:59:11.847Z,55.27
2019-02-02T14:00:11.705Z,55.08
2019-02-02T14:02:04.597Z,55.75
2019-02-02T14:03:04.472Z,55.37
2019-02-02T14:04:57.341Z,55.18
2019-02-02T14:05:57.208Z,54.71
2019-02-02T14:07:50.096Z,54.14
2019-02-02T14:08:49.959Z,54.42
2019-02-02T14:10:42.857Z,54.77
2019-02-02T14:11:42.723Z,55.25
2019-02-02T14:13:36.116Z,56.10
2019-02-02T14:14:36.005Z,56.10
2019-02-02T14:16:28.867Z,56.20
2019-02-02T14:17:28.714Z,55.91
2019-02-02T14:19:21.624Z,56.57
2019-02-02T14:20:21.466Z,56.20
2019-02-02T14:22:14.351Z,56.29
2019-02-02T14:23:14.220Z,56.22
2019-02-02T14:25:07.111Z,56.29
2019-02-02T14:26:06.984Z,56.29
2019-02-02T14:28:00.325Z,57.14
2019-02-02T14:28:59.748Z,57.33
2019-02-02T14:30:53.716Z,57.61
2019-02-02T14:31:52.470Z,57.52
2019-02-02T14:33:45.340Z,57.52
2019-02-02T14:34:45.214Z,57.42
2019-02-02T14:36:38.100Z,57.33
2019-02-02T14:37:37.970Z,57.52
2019-02-02T14:39:31.274Z,57.04
2019-02-02T14:40:31.124Z,57.33
2019-02-02T14:42:24.104Z,57.71
2019-02-02T14:43:23.921Z,57.52
2019-02-02T14:45:16.754Z,57.42
2019-02-02T14:46:16.625Z,57.52
2019-02-02T14:48:09.504Z,57.14
2019-02-02T14:49:09.375Z,57.04
2019-02-02T14:51:02.256Z,57.52
2019-02-02T14:52:02.152Z,57.23
2019-02-02T14:53:55.042Z,57.14
2019-02-02T14:54:55.234Z,56.67
2019-02-02T14:56:48.472Z,56.85
2019-02-02T14:57:47.627Z,56.57
2019-02-02T14:59:40.495Z,56.10
2019-02-02T15:00:40.387Z,56.20
2019-02-02T15:02:33.277Z,56.76
2019-02-02T15:03:33.147Z,56.76
2019-02-02T15:05:26.098Z,56.76
2019-02-02T15:06:25.925Z,57.04
2019-02-02T15:08:18.867Z,57.52
2019-02-02T15:09:18.723Z,57.71
2019-02-02T15:11:11.607Z,58.47
2019-02-02T15:12:11.383Z,58.84
2019-02-02T15:14:04.640Z,59.12
2019-02-02T15:15:05.921Z,60.17
2019-02-02T15:16:57.117Z,60.26
2019-02-02T15:17:56.967Z,60.64
2019-02-02T15:19:49.973Z,60.93
2019-02-02T15:20:49.841Z,61.02
2019-02-02T15:22:42.716Z,61.11
2019-02-02T15:23:45.351Z,60.64
2019-02-02T15:25:35.403Z,60.45
2019-02-02T15:26:35.266Z,60.64
2019-02-02T15:28:28.119Z,60.83
2019-02-02T15:29:27.970Z,60.83
2019-02-02T15:31:21.210Z,60.17
2019-02-02T15:32:20.725Z,60.17
2019-02-02T15:34:13.630Z,60.83
2019-02-02T15:35:14.332Z,60.93
2019-02-02T15:37:06.349Z,61.49
2019-02-02T15:38:06.343Z,62.06
2019-02-02T15:39:59.104Z,61.87
2019-02-02T15:40:59.541Z,61.96
2019-02-02T15:42:51.856Z,62.15
2019-02-02T15:43:51.723Z,62.15
2019-02-02T15:45:44.614Z,62.15
2019-02-02T15:46:49.012Z,62.94
2019-02-02T15:48:37.358Z,63.29
2019-02-02T15:49:37.222Z,63.01
2019-02-02T15:51:40.058Z,63.67
2019-02-02T15:52:29.959Z,63.39
2019-02-02T15:54:22.864Z,63.39
2019-02-02T15:55:22.735Z,63.48
2019-02-02T15:57:15.626Z,63.39
2019-02-02T15:58:15.476Z,62.72
2019-02-02T16:00:08.356Z,63.39
2019-02-02T16:01:08.230Z,63.29
2019-02-02T16:03:01.098Z,62.72
2019-02-02T16:04:00.970Z,62.82
2019-02-02T16:05:53.855Z,62.72
2019-02-02T16:06:53.727Z,62.53
2019-02-02T16:08:46.594Z,63.01
2019-02-02T16:09:46.465Z,63.32
2019-02-02T16:11:39.351Z,63.29
2019-02-02T16:12:39.217Z,63.10
2019-02-02T16:14:32.117Z,63.48
2019-02-02T16:15:34.153Z,63.57
2019-02-02T16:17:24.885Z,63.67
2019-02-02T16:18:24.723Z,63.57
2019-02-02T16:20:18.156Z,63.57
2019-02-02T16:21:17.983Z,63.57
2019-02-02T16:23:10.864Z,64.14
2019-02-02T16:24:10.735Z,63.57
2019-02-02T16:26:04.121Z,63.67
2019-02-02T16:27:04.008Z,63.57
2019-02-02T16:28:56.889Z,63.67
2019-02-02T16:29:56.763Z,63.01
2019-02-02T16:31:49.625Z,63.20
2019-02-02T16:32:49.782Z,62.25
2019-02-02T16:34:42.370Z,63.20
2019-02-02T16:35:42.269Z,62.82
2019-02-02T16:37:36.419Z,62.53
2019-02-02T16:38:34.999Z,62.63
2019-02-02T16:40:28.321Z,63.39
2019-02-02T16:41:28.149Z,63.01
2019-02-02T16:43:21.035Z,63.39
2019-02-02T16:44:20.902Z,63.29
2019-02-02T16:46:13.795Z,63.67
2019-02-02T16:47:13.648Z,63.39
2019-02-02T16:49:06.559Z,63.20
2019-02-02T16:50:06.391Z,62.91
2019-02-02T16:51:59.296Z,62.06
2019-02-02T16:52:59.254Z,61.87
2019-02-02T16:54:52.034Z,61.58
2019-02-02T16:55:51.905Z,61.49
2019-02-02T16:57:44.790Z,60.83
2019-02-02T16:58:44.660Z,60.93
2019-02-02T17:00:37.526Z,60.55
2019-02-02T17:01:37.410Z,60.55
2019-02-02T17:03:30.284Z,59.69
2019-02-02T17:04:30.136Z,59.98
2019-02-02T17:06:23.038Z,59.98
2019-02-02T17:07:22.896Z,59.98
2019-02-02T17:09:15.781Z,59.79
2019-02-02T17:10:15.662Z,59.50
2019-02-02T17:12:08.557Z,59.31
2019-02-02T17:13:08.420Z,59.41
2019-02-02T17:15:01.295Z,59.69
2019-02-02T17:16:01.146Z,59.69
2019-02-02T17:17:54.024Z,59.69
2019-02-02T17:18:53.882Z,59.50
2019-02-02T17:20:46.794Z,59.12
2019-02-02T17:21:46.636Z,59.50
2019-02-02T17:23:39.524Z,59.22
2019-02-02T17:24:39.426Z,58.84
2019-02-02T17:26:32.858Z,58.28
2019-02-02T17:27:32.142Z,58.09
2019-02-02T17:29:25.061Z,58.47
2019-02-02T17:30:24.884Z,57.71
2019-02-02T17:32:17.790Z,57.61
2019-02-02T17:33:17.642Z,57.71
2019-02-02T17:35:10.525Z,57.42
2019-02-02T17:36:10.401Z,57.14
2019-02-02T17:38:03.295Z,56.95
2019-02-02T17:39:03.141Z,56.48
2019-02-02T17:40:56.038Z,56.76
2019-02-02T17:41:55.891Z,56.57
2019-02-02T17:43:48.799Z,56.01
2019-02-02T17:44:48.640Z,56.10
2019-02-02T17:46:41.531Z,56.57
2019-02-02T17:47:41.392Z,55.91
2019-02-02T17:49:34.277Z,55.53
2019-02-02T17:50:34.135Z,55.82
2019-02-02T17:52:27.539Z,55.63
2019-02-02T17:53:27.397Z,55.44
2019-02-02T17:55:20.290Z,54.96
2019-02-02T17:56:20.156Z,55.06
2019-02-02T17:58:13.579Z,55.15
2019-02-02T17:59:12.965Z,54.77
2019-02-02T18:01:05.774Z,54.87
2019-02-02T18:02:05.643Z,55.34
2019-02-02T18:03:58.541Z,55.34
2019-02-02T18:04:58.393Z,55.25
2019-02-02T18:06:51.312Z,54.96
2019-02-02T18:07:51.160Z,55.25
2019-02-02T18:09:46.734Z,55.06
2019-02-02T18:10:43.906Z,55.15
2019-02-02T18:12:36.790Z,55.25
2019-02-02T18:13:36.650Z,55.15
2019-02-02T18:15:29.575Z,55.25
2019-02-02T18:16:29.397Z,55.53
2019-02-02T18:18:22.294Z,55.82
2019-02-02T18:19:22.142Z,55.53
2019-02-02T18:21:15.058Z,55.72
2019-02-02T18:22:14.893Z,55.53
2019-02-02T18:24:07.779Z,56.48
2019-02-02T18:25:07.642Z,56.67
2019-02-02T18:27:00.527Z,56.10
2019-02-02T18:28:00.390Z,56.29
2019-02-02T18:29:53.392Z,56.57
2019-02-02T18:30:53.271Z,56.57
2019-02-02T18:32:46.266Z,56.57